Time;durP1;ratioP1;P1;durP2;ratioP2;P2;SDS_P1;SDS_P2;PMS_P1;PMS_P2;Temp;Humidity;BMP_temperature;BMP_pressure;BME280_temperature;BME280_humidity;BME280_pressure;Samples;Min_cycle;Max_cycle;Signal;HPM_P1;HPM_P2
2024/01/19 00:00:26;;;;;;;;;65.00;52.00;;;;;;;;5043783;28;48050;-77
2024/01/19 00:02:51;;;;;;;;;61.00;49.75;;;;;;;;5043319;28;45487;-78
2024/01/19 00:05:18;;;;;;;;;62.00;53.75;;;;;;;;5042917;28;45549;-77
2024/01/19 00:07:43;;;;;;;;;57.00;48.25;;;;;;;;5043692;28;46208;-78
2024/01/19 00:10:09;;;;;;;;;33.75;32.25;;;;;;;;5042304;28;47420;-77
2024/01/19 00:12:35;;;;;;;;;58.25;50.50;;;;;;;;5043561;28;45927;-78
2024/01/19 00:15:01;;;;;;;;;54.50;44.50;;;;;;;;5061670;28;45391;-77
2024/01/19 00:17:26;;;;;;;;;65.00;49.25;;;;;;;;5043528;28;47085;-77
2024/01/19 00:19:51;;;;;;;;;60.50;49.75;;;;;;;;5043219;28;47043;-78
2024/01/19 00:22:17;;;;;;;;;52.75;47.00;;;;;;;;5042848;28;45284;-77
2024/01/19 00:24:42;;;;;;;;;50.00;44.75;;;;;;;;5043437;28;45386;-78
2024/01/19 00:27:07;;;;;;;;;61.00;48.50;;;;;;;;5061443;28;45165;-77
2024/01/19 00:29:32;;;;;;;;;52.25;44.50;;;;;;;;5061441;28;45490;-77
2024/01/19 00:31:57;;;;;;;;;57.00;46.00;;;;;;;;5061314;28;45229;-78
2024/01/19 00:34:22;;;;;;;;;59.50;45.50;;;;;;;;5043125;28;45217;-78
2024/01/19 00:36:48;;;;;;;;;47.50;44.50;;;;;;;;5061230;28;45198;-77
2024/01/19 00:39:14;;;;;;;;;56.75;48.00;;;;;;;;5042917;28;47282;-77
2024/01/19 00:41:39;;;;;;;;;58.00;48.50;;;;;;;;5061032;28;45335;-77
2024/01/19 00:44:05;;;;;;;;;57.50;49.00;;;;;;;;5043043;28;45220;-78
2024/01/19 00:46:30;;;;;;;;;57.75;50.00;;;;;;;;5042788;28;46863;-78
2024/01/19 00:48:55;;;;;;;;;56.25;48.50;;;;;;;;5060816;28;45392;-77
2024/01/19 00:51:20;;;;;;;;;59.00;49.00;;;;;;;;5060934;28;45138;-78
2024/01/19 00:53:45;;;;;;;;;58.25;48.75;;;;;;;;5042360;28;45251;-78
2024/01/19 00:56:11;;;;;;;;;60.00;49.75;;;;;;;;5041537;28;45974;-78
2024/01/19 00:58:37;;;;;;;;;51.25;46.75;;;;;;;;5060420;28;45409;-77
2024/01/19 01:01:02;;;;;;;;;66.50;53.25;;;;;;;;5042518;28;46141;-78
2024/01/19 01:03:28;;;;;;;;;61.00;50.25;;;;;;;;5060653;28;45296;-77
2024/01/19 01:05:56;;;;;;;;;60.25;51.50;;;;;;;;5058392;28;45763;-78
2024/01/19 01:08:21;;;;;;;;;56.50;49.25;;;;;;;;5041820;28;48163;-77
2024/01/19 01:10:46;;;;;;;;;62.00;50.75;;;;;;;;5041407;28;45564;-78
2024/01/19 01:13:11;;;;;;;;;59.00;49.50;;;;;;;;5059582;28;45468;-78
2024/01/19 01:15:36;;;;;;;;;61.00;49.75;;;;;;;;5037615;28;46012;-77
2024/01/19 01:18:02;;;;;;;;;49.50;43.25;;;;;;;;5060346;28;45545;-78
2024/01/19 01:20:27;;;;;;;;;50.25;45.25;;;;;;;;5041031;28;45421;-77
2024/01/19 01:22:52;;;;;;;;;46.25;42.50;;;;;;;;5039061;28;45336;-78
2024/01/19 01:25:17;;;;;;;;;48.50;42.00;;;;;;;;5042286;28;46257;-77
2024/01/19 01:27:42;;;;;;;;;43.75;42.00;;;;;;;;5041920;28;47023;-78
2024/01/19 01:30:08;;;;;;;;;43.50;42.00;;;;;;;;5040836;28;45935;-78
2024/01/19 01:32:34;;;;;;;;;43.25;38.25;;;;;;;;5041155;28;45328;-78
2024/01/19 01:34:59;;;;;;;;;43.25;39.75;;;;;;;;5059982;28;45438;-78
2024/01/19 01:37:24;;;;;;;;;48.00;42.50;;;;;;;;5060271;28;45568;-77
2024/01/19 01:39:49;;;;;;;;;34.50;30.75;;;;;;;;5060333;28;45382;-77
2024/01/19 01:42:14;;;;;;;;;44.25;42.00;;;;;;;;5060172;28;45589;-78
2024/01/19 01:44:40;;;;;;;;;59.00;47.50;;;;;;;;5059975;28;45627;-77
2024/01/19 01:47:05;;;;;;;;;48.50;43.00;;;;;;;;5059849;28;45491;-78
2024/01/19 01:49:30;;;;;;;;;60.75;50.50;;;;;;;;5059949;28;45328;-78
2024/01/19 01:51:55;;;;;;;;;54.50;46.75;;;;;;;;5060232;28;45276;-78
2024/01/19 01:54:20;;;;;;;;;32.50;32.00;;;;;;;;5059895;28;45470;-77
2024/01/19 01:56:46;;;;;;;;;45.50;42.00;;;;;;;;5059727;28;45319;-79
2024/01/19 01:59:12;;;;;;;;;50.25;43.50;;;;;;;;5059937;28;45331;-79
2024/01/19 02:01:37;;;;;;;;;41.00;39.25;;;;;;;;5059448;28;45300;-78
2024/01/19 02:04:02;;;;;;;;;45.75;42.25;;;;;;;;5059824;28;45430;-77
2024/01/19 02:06:28;;;;;;;;;41.50;37.50;;;;;;;;5059705;28;45374;-78
2024/01/19 02:08:53;;;;;;;;;45.25;39.75;;;;;;;;5041476;28;45330;-78
2024/01/19 02:11:19;;;;;;;;;43.50;39.50;;;;;;;;5059876;28;45486;-78
2024/01/19 02:13:44;;;;;;;;;40.75;39.25;;;;;;;;5041377;28;46774;-77
2024/01/19 02:16:09;;;;;;;;;44.75;41.00;;;;;;;;5041311;28;47633;-78
2024/01/19 02:18:34;;;;;;;;;38.50;37.00;;;;;;;;5041535;28;45363;-78
2024/01/19 02:20:59;;;;;;;;;41.25;39.50;;;;;;;;5059739;28;45625;-78
2024/01/19 02:23:26;;;;;;;;;46.00;41.75;;;;;;;;5059495;28;45466;-77
2024/01/19 02:25:51;;;;;;;;;36.00;34.00;;;;;;;;5041150;28;48500;-77
2024/01/19 02:28:17;;;;;;;;;44.25;41.25;;;;;;;;5059391;28;45343;-78
2024/01/19 02:30:44;;;;;;;;;44.75;39.25;;;;;;;;5059262;28;45311;-77
2024/01/19 02:33:09;;;;;;;;;40.75;37.75;;;;;;;;5041172;28;46170;-78
2024/01/19 02:35:34;;;;;;;;;37.75;33.75;;;;;;;;5059128;28;45205;-77
2024/01/19 02:38:00;;;;;;;;;42.00;39.50;;;;;;;;5059253;28;45231;-78
2024/01/19 02:40:25;;;;;;;;;47.00;42.25;;;;;;;;5041281;28;45331;-77
2024/01/19 02:42:50;;;;;;;;;51.25;46.25;;;;;;;;5058981;28;45486;-77
2024/01/19 02:45:15;;;;;;;;;47.75;43.25;;;;;;;;5058858;28;45256;-77
2024/01/19 02:47:40;;;;;;;;;37.00;32.50;;;;;;;;5041110;28;45247;-78
2024/01/19 02:50:06;;;;;;;;;48.25;44.25;;;;;;;;5059377;28;45186;-77
2024/01/19 02:52:31;;;;;;;;;40.50;38.25;;;;;;;;5041003;28;46277;-78
2024/01/19 02:54:56;;;;;;;;;42.50;41.50;;;;;;;;5040409;28;48295;-77
2024/01/19 02:57:21;;;;;;;;;40.00;36.50;;;;;;;;5058841;28;45391;-78
2024/01/19 02:59:46;;;;;;;;;43.75;39.75;;;;;;;;5040267;28;45319;-77
2024/01/19 03:02:12;;;;;;;;;46.50;42.50;;;;;;;;5058436;28;45374;-77
2024/01/19 03:04:38;;;;;;;;;47.00;44.50;;;;;;;;5040668;28;47958;-78
2024/01/19 03:07:03;;;;;;;;;44.50;42.00;;;;;;;;5040622;28;45691;-78
2024/01/19 03:09:29;;;;;;;;;43.00;40.00;;;;;;;;5040840;28;45394;-78
2024/01/19 03:11:54;;;;;;;;;48.00;43.00;;;;;;;;5058760;28;45516;-78
2024/01/19 03:14:19;;;;;;;;;42.50;41.50;;;;;;;;5058662;28;46650;-77
2024/01/19 03:16:44;;;;;;;;;51.75;46.00;;;;;;;;5058809;28;45423;-78
2024/01/19 03:19:09;;;;;;;;;50.75;45.25;;;;;;;;5040749;28;45298;-77
2024/01/19 03:21:35;;;;;;;;;48.25;42.25;;;;;;;;5040245;28;46280;-78
2024/01/19 03:24:01;;;;;;;;;42.50;34.50;;;;;;;;5058759;28;45897;-78
2024/01/19 03:26:26;;;;;;;;;54.75;46.75;;;;;;;;5058596;28;45234;-78
2024/01/19 03:28:51;;;;;;;;;43.50;35.00;;;;;;;;5058727;28;45660;-78
2024/01/19 03:31:16;;;;;;;;;49.25;42.75;;;;;;;;5040422;28;47054;-78
2024/01/19 03:33:41;;;;;;;;;50.00;44.00;;;;;;;;5040342;28;47197;-77
2024/01/19 03:36:07;;;;;;;;;60.75;48.25;;;;;;;;5040556;28;45224;-78
2024/01/19 03:38:32;;;;;;;;;52.25;47.00;;;;;;;;5058846;28;45265;-78
2024/01/19 03:40:57;;;;;;;;;48.75;43.00;;;;;;;;5058595;28;45389;-78
2024/01/19 03:43:23;;;;;;;;;47.75;40.00;;;;;;;;5040314;28;47336;-78
2024/01/19 03:45:49;;;;;;;;;51.00;46.00;;;;;;;;5058330;28;45359;-78
2024/01/19 03:48:14;;;;;;;;;42.00;40.00;;;;;;;;5040370;28;45359;-77
2024/01/19 03:50:39;;;;;;;;;50.00;42.75;;;;;;;;5058329;28;45215;-78
2024/01/19 03:53:06;;;;;;;;;47.75;43.00;;;;;;;;5040011;28;48324;-78
2024/01/19 03:55:31;;;;;;;;;51.50;45.50;;;;;;;;5058520;28;45255;-78
2024/01/19 03:57:56;;;;;;;;;48.25;40.50;;;;;;;;5043392;28;45412;-78
2024/01/19 04:00:21;;;;;;;;;49.00;44.00;;;;;;;;5061621;28;45225;-78
2024/01/19 04:02:46;;;;;;;;;48.75;43.50;;;;;;;;5043389;28;48450;-78
2024/01/19 04:05:11;;;;;;;;;48.25;45.00;;;;;;;;5061495;28;45487;-78
2024/01/19 04:07:37;;;;;;;;;52.50;45.75;;;;;;;;5061897;28;45347;-78
2024/01/19 04:10:02;;;;;;;;;49.50;44.50;;;;;;;;5043310;28;46673;-78
2024/01/19 04:12:27;;;;;;;;;47.00;42.75;;;;;;;;5061683;28;45412;-78
2024/01/19 04:14:53;;;;;;;;;51.75;44.50;;;;;;;;5043017;28;45376;-78
2024/01/19 04:17:18;;;;;;;;;44.75;40.50;;;;;;;;5061589;28;45436;-78
2024/01/19 04:19:43;;;;;;;;;51.75;44.25;;;;;;;;5043279;28;45996;-78
2024/01/19 04:22:08;;;;;;;;;39.50;31.00;;;;;;;;5061066;28;45297;-78
2024/01/19 04:24:33;;;;;;;;;32.75;28.50;;;;;;;;5043407;28;45559;-78
2024/01/19 04:26:59;;;;;;;;;48.75;43.25;;;;;;;;5061592;28;45260;-77
2024/01/19 04:29:24;;;;;;;;;46.25;39.25;;;;;;;;5061240;28;45417;-78
2024/01/19 04:31:49;;;;;;;;;45.00;43.25;;;;;;;;5060982;28;45502;-78
2024/01/19 04:34:14;;;;;;;;;47.00;42.75;;;;;;;;5042916;28;45270;-77
2024/01/19 04:36:40;;;;;;;;;42.50;40.25;;;;;;;;5061283;28;45305;-77
2024/01/19 04:39:05;;;;;;;;;27.50;26.25;;;;;;;;5061178;28;45421;-78
2024/01/19 04:41:31;;;;;;;;;42.25;42.25;;;;;;;;5060654;28;46521;-78
2024/01/19 04:43:56;;;;;;;;;46.50;41.00;;;;;;;;5042834;28;45335;-78
2024/01/19 04:46:21;;;;;;;;;46.00;42.50;;;;;;;;5041885;28;45427;-78
2024/01/19 04:48:47;;;;;;;;;41.50;38.50;;;;;;;;5060291;28;45386;-78
2024/01/19 04:51:12;;;;;;;;;44.50;40.25;;;;;;;;5042788;28;46667;-78
2024/01/19 04:53:38;;;;;;;;;35.25;32.00;;;;;;;;5060790;28;45386;-78
2024/01/19 04:56:04;;;;;;;;;43.25;41.75;;;;;;;;5061012;28;45256;-77
2024/01/19 04:58:30;;;;;;;;;42.00;40.75;;;;;;;;5042498;28;46219;-78
2024/01/19 05:00:56;;;;;;;;;42.00;40.75;;;;;;;;5060426;28;47747;-79
2024/01/19 05:03:21;;;;;;;;;45.50;42.00;;;;;;;;5042349;28;45514;-78
2024/01/19 05:05:46;;;;;;;;;44.50;39.25;;;;;;;;5042804;28;45316;-77
2024/01/19 05:08:11;;;;;;;;;29.25;27.25;;;;;;;;5059531;28;45335;-78
2024/01/19 05:10:37;;;;;;;;;48.25;43.00;;;;;;;;5060621;28;46602;-78
2024/01/19 05:13:03;;;;;;;;;43.25;41.50;;;;;;;;5042329;28;45303;-78
2024/01/19 05:15:28;;;;;;;;;46.50;41.25;;;;;;;;5060586;28;45380;-78
2024/01/19 05:17:53;;;;;;;;;44.25;42.75;;;;;;;;5041987;28;47057;-78
2024/01/19 05:20:18;;;;;;;;;44.50;39.00;;;;;;;;5059971;28;46604;-78
2024/01/19 05:22:44;;;;;;;;;15.75;15.00;;;;;;;;5059213;28;45368;-77
2024/01/19 05:25:09;;;;;;;;;38.00;35.50;;;;;;;;5059967;28;45562;-77
2024/01/19 05:27:34;;;;;;;;;50.50;44.25;;;;;;;;5060329;28;45398;-77
2024/01/19 05:30:00;;;;;;;;;44.50;41.75;;;;;;;;5042000;28;46954;-78
2024/01/19 05:32:25;;;;;;;;;46.50;41.25;;;;;;;;5041188;28;45879;-77
2024/01/19 05:34:50;;;;;;;;;45.00;42.25;;;;;;;;5041709;28;45371;-78
2024/01/19 05:37:15;;;;;;;;;45.25;40.50;;;;;;;;5042162;28;46096;-78
2024/01/19 05:39:40;;;;;;;;;47.75;42.75;;;;;;;;5060261;28;45350;-78
2024/01/19 05:42:06;;;;;;;;;51.25;41.75;;;;;;;;5042015;28;45265;-78
2024/01/19 05:44:31;;;;;;;;;28.50;21.75;;;;;;;;5060410;28;45331;-78
2024/01/19 05:46:56;;;;;;;;;53.25;46.00;;;;;;;;5059971;28;45460;-78
2024/01/19 05:49:21;;;;;;;;;47.75;44.00;;;;;;;;5041838;28;47521;-78
2024/01/19 05:51:46;;;;;;;;;46.50;43.00;;;;;;;;5042105;28;45324;-78
2024/01/19 05:54:11;;;;;;;;;47.75;44.00;;;;;;;;5038384;28;45290;-77
2024/01/19 05:56:37;;;;;;;;;47.25;42.75;;;;;;;;5040518;28;45222;-78
2024/01/19 05:59:02;;;;;;;;;48.50;43.25;;;;;;;;5047331;28;45380;-79
2024/01/19 06:01:27;;;;;;;;;55.75;46.00;;;;;;;;5053870;28;45152;-78
2024/01/19 06:03:52;;;;;;;;;58.50;47.50;;;;;;;;5052870;28;45341;-77
2024/01/19 06:06:18;;;;;;;;;51.25;44.25;;;;;;;;5039906;28;45525;-77
2024/01/19 06:08:43;;;;;;;;;54.00;46.50;;;;;;;;5038435;28;47635;-79
2024/01/19 06:11:08;;;;;;;;;57.25;47.00;;;;;;;;5039739;28;45221;-78
2024/01/19 06:13:34;;;;;;;;;60.50;48.25;;;;;;;;5040809;28;45306;-78
2024/01/19 06:16:00;;;;;;;;;50.75;44.75;;;;;;;;5050093;28;45360;-79
2024/01/19 06:18:25;;;;;;;;;63.50;48.75;;;;;;;;5050316;28;47214;-79
2024/01/19 06:20:51;;;;;;;;;49.50;45.50;;;;;;;;5063045;28;45223;-79
2024/01/19 06:23:17;;;;;;;;;43.00;40.00;;;;;;;;5063791;28;45366;-79
2024/01/19 06:25:42;;;;;;;;;53.75;45.75;;;;;;;;5061655;28;47205;-80
2024/01/19 06:28:07;;;;;;;;;40.00;39.25;;;;;;;;5064216;28;47456;-79
2024/01/19 06:30:33;;;;;;;;;54.25;45.25;;;;;;;;5066281;28;45574;-78
2024/01/19 06:32:58;;;;;;;;;57.00;47.50;;;;;;;;5065806;28;45324;-79
2024/01/19 06:35:24;;;;;;;;;42.50;39.25;;;;;;;;5060547;28;45907;-79
2024/01/19 06:37:49;;;;;;;;;45.75;42.75;;;;;;;;5060370;28;45576;-79
2024/01/19 06:40:18;;;;;;;;;52.25;46.50;;;;;;;;5053929;28;45328;-77
2024/01/19 06:42:46;;;;;;;;;52.75;47.25;;;;;;;;5038127;28;45312;-78
2024/01/19 06:45:11;;;;;;;;;62.50;47.75;;;;;;;;5044064;28;45466;-79
2024/01/19 06:47:36;;;;;;;;;51.50;46.25;;;;;;;;5037708;28;48529;-80
2024/01/19 06:50:03;;;;;;;;;49.75;45.75;;;;;;;;5037770;28;46002;-78
2024/01/19 06:52:28;;;;;;;;;54.00;47.00;;;;;;;;5039643;28;45353;-78
2024/01/19 06:54:53;;;;;;;;;55.00;47.25;;;;;;;;5037748;28;46319;-80
2024/01/19 06:57:19;;;;;;;;;52.00;44.00;;;;;;;;5031630;28;46574;-80
2024/01/19 06:59:44;;;;;;;;;55.25;47.75;;;;;;;;5019252;28;45254;-81
2024/01/19 07:02:09;;;;;;;;;56.00;47.00;;;;;;;;5052101;28;45470;-77
2024/01/19 07:04:34;;;;;;;;;55.75;49.25;;;;;;;;5019301;28;45561;-77
2024/01/19 07:06:59;;;;;;;;;57.50;47.25;;;;;;;;5034368;28;47220;-77
2024/01/19 07:09:28;;;;;;;;;43.50;41.25;;;;;;;;5037961;28;45419;-77
2024/01/19 07:11:53;;;;;;;;;57.75;48.75;;;;;;;;5038529;28;45622;-78
2024/01/19 07:14:18;;;;;;;;;56.75;48.00;;;;;;;;5038713;28;45536;-77
2024/01/19 07:16:43;;;;;;;;;58.75;51.00;;;;;;;;5038835;28;46074;-78
2024/01/19 07:19:09;;;;;;;;;53.50;47.00;;;;;;;;5039016;28;45331;-78
2024/01/19 07:21:40;;;;;;;;;51.75;46.25;;;;;;;;5037557;28;45309;-78
2024/01/19 07:24:09;;;;;;;;;48.00;41.50;;;;;;;;5038901;28;45395;-77
2024/01/19 07:26:34;;;;;;;;;62.25;51.25;;;;;;;;5047720;28;45349;-77
2024/01/19 07:29:04;;;;;;;;;56.25;45.25;;;;;;;;5053540;28;45338;-77
2024/01/19 07:31:29;;;;;;;;;55.00;48.50;;;;;;;;5059288;28;45284;-75
2024/01/19 07:33:54;;;;;;;;;65.25;54.00;;;;;;;;5062314;28;45318;-76
2024/01/19 07:36:19;;;;;;;;;65.25;51.50;;;;;;;;5062337;28;46061;-76
2024/01/19 07:38:44;;;;;;;;;58.50;50.25;;;;;;;;5061070;28;45324;-77
2024/01/19 07:41:10;;;;;;;;;58.50;48.75;;;;;;;;5062476;28;45583;-77
2024/01/19 07:43:35;;;;;;;;;62.50;51.50;;;;;;;;5060554;28;46245;-76
2024/01/19 07:46:00;;;;;;;;;59.00;50.50;;;;;;;;5055058;28;46246;-77
2024/01/19 07:48:26;;;;;;;;;65.50;54.75;;;;;;;;5060025;28;46303;-76
2024/01/19 07:50:51;;;;;;;;;52.50;47.50;;;;;;;;5060793;28;45637;-77
2024/01/19 07:53:16;;;;;;;;;61.25;52.50;;;;;;;;5067090;28;45570;-79
2024/01/19 07:55:41;;;;;;;;;63.50;50.00;;;;;;;;5072448;28;45570;-77
2024/01/19 07:58:07;;;;;;;;;60.75;49.75;;;;;;;;5047758;28;45403;-78
2024/01/19 08:00:32;;;;;;;;;43.75;35.25;;;;;;;;5023920;28;45491;-78
2024/01/19 08:02:58;;;;;;;;;55.25;47.75;;;;;;;;5041759;28;45490;-78
2024/01/19 08:05:23;;;;;;;;;62.00;51.50;;;;;;;;5023853;28;48613;-78
2024/01/19 08:07:48;;;;;;;;;58.50;50.75;;;;;;;;5024915;28;45331;-78
2024/01/19 08:10:13;;;;;;;;;59.50;47.50;;;;;;;;5024681;28;45283;-79
2024/01/19 08:12:39;;;;;;;;;43.00;43.00;;;;;;;;5055637;28;45422;-77
2024/01/19 08:15:05;;;;;;;;;62.75;49.50;;;;;;;;5061521;28;45232;-77
2024/01/19 08:17:30;;;;;;;;;58.00;48.50;;;;;;;;5043683;28;46261;-77
2024/01/19 08:19:55;;;;;;;;;64.00;52.00;;;;;;;;5061862;28;45403;-77
2024/01/19 08:22:20;;;;;;;;;64.00;50.25;;;;;;;;5043127;28;46334;-77
2024/01/19 08:24:45;;;;;;;;;55.25;48.50;;;;;;;;5061856;28;45320;-76
2024/01/19 08:27:11;;;;;;;;;60.50;50.50;;;;;;;;5043435;28;45327;-77
2024/01/19 08:29:36;;;;;;;;;65.00;55.25;;;;;;;;5061509;28;45492;-77
2024/01/19 08:32:01;;;;;;;;;65.25;53.25;;;;;;;;5043357;28;46235;-77
2024/01/19 08:34:27;;;;;;;;;74.75;61.75;;;;;;;;5061593;28;46693;-78
2024/01/19 08:36:52;;;;;;;;;71.25;57.00;;;;;;;;5061337;28;45383;-76
2024/01/19 08:39:18;;;;;;;;;73.25;58.75;;;;;;;;5061479;28;45566;-78
2024/01/19 08:41:43;;;;;;;;;81.50;65.25;;;;;;;;5042944;28;46990;-77
2024/01/19 08:44:09;;;;;;;;;78.25;65.50;;;;;;;;5075916;28;46396;-77
2024/01/19 08:46:34;;;;;;;;;79.00;64.00;;;;;;;;5063114;28;45318;-76
2024/01/19 08:49:00;;;;;;;;;78.75;63.00;;;;;;;;5072831;28;45365;-77
2024/01/19 08:51:28;;;;;;;;;78.75;64.00;;;;;;;;5062921;28;45837;-76
2024/01/19 08:53:53;;;;;;;;;81.50;66.25;;;;;;;;5062590;28;48134;-76
2024/01/19 08:56:20;;;;;;;;;82.50;66.50;;;;;;;;5063063;28;45383;-80
2024/01/19 08:58:45;;;;;;;;;87.75;70.00;;;;;;;;5053106;28;45591;-75
2024/01/19 09:01:15;;;;;;;;;85.75;65.75;;;;;;;;5055486;28;45569;-75
2024/01/19 09:03:40;;;;;;;;;88.50;70.50;;;;;;;;5059899;28;46686;-76
2024/01/19 09:06:05;;;;;;;;;82.50;66.25;;;;;;;;5071569;28;45542;-76
2024/01/19 09:08:31;;;;;;;;;84.75;68.50;;;;;;;;5069622;28;45236;-77
2024/01/19 09:10:56;;;;;;;;;92.75;72.00;;;;;;;;5069182;28;45249;-76
2024/01/19 09:13:21;;;;;;;;;86.50;67.50;;;;;;;;5067643;27;46132;-77
2024/01/19 09:15:47;;;;;;;;;61.75;47.50;;;;;;;;5041996;28;45372;-77
2024/01/19 09:18:12;;;;;;;;;94.75;75.50;;;;;;;;5041984;28;45323;-76
2024/01/19 09:20:37;;;;;;;;;90.50;70.50;;;;;;;;5041699;28;46812;-77
2024/01/19 09:23:02;;;;;;;;;82.00;64.75;;;;;;;;5059979;28;46347;-76
2024/01/19 09:25:28;;;;;;;;;88.25;72.00;;;;;;;;5061769;28;45201;-77
2024/01/19 09:27:53;;;;;;;;;88.50;69.75;;;;;;;;5041521;28;45214;-77
2024/01/19 09:30:19;;;;;;;;;90.25;72.25;;;;;;;;5058050;28;45519;-77
2024/01/19 09:32:44;;;;;;;;;88.25;71.00;;;;;;;;5060211;28;45426;-76
2024/01/19 09:35:09;;;;;;;;;90.75;70.75;;;;;;;;5059868;28;45283;-78
2024/01/19 09:37:34;;;;;;;;;93.75;73.00;;;;;;;;5060236;28;45367;-77
2024/01/19 09:39:59;;;;;;;;;94.50;75.25;;;;;;;;5059392;28;45569;-77
2024/01/19 09:42:27;;;;;;;;;89.75;70.75;;;;;;;;5059231;28;45276;-77
2024/01/19 09:45:00;;;;;;;;;87.75;71.50;;;;;;;;5069727;28;45361;-77
2024/01/19 09:47:30;;;;;;;;;84.25;65.75;;;;;;;;5080455;28;45673;-78
2024/01/19 09:50:03;;;;;;;;;91.00;71.25;;;;;;;;5061261;28;47340;-77
2024/01/19 09:52:37;;;;;;;;;82.50;65.75;;;;;;;;5080081;28;46126;-77
2024/01/19 09:55:02;;;;;;;;;81.75;65.00;;;;;;;;5057679;28;45824;-78
2024/01/19 09:57:30;;;;;;;;;84.75;67.00;;;;;;;;5053745;28;45437;-77
2024/01/19 09:59:55;;;;;;;;;84.25;65.00;;;;;;;;5076321;28;45518;-78
2024/01/19 10:02:22;;;;;;;;;82.00;65.75;;;;;;;;5074147;28;46235;-78
2024/01/19 10:04:48;;;;;;;;;78.50;61.50;;;;;;;;5060318;28;45251;-76
2024/01/19 10:07:13;;;;;;;;;86.00;69.50;;;;;;;;5035478;28;45645;-77
2024/01/19 10:09:40;;;;;;;;;79.75;65.25;;;;;;;;5050700;28;45429;-76
2024/01/19 10:12:06;;;;;;;;;83.50;64.00;;;;;;;;5062522;28;45550;-76
2024/01/19 10:14:32;;;;;;;;;83.25;66.25;;;;;;;;5047337;28;45772;-77
2024/01/19 10:16:57;;;;;;;;;73.00;60.25;;;;;;;;5060410;28;45345;-78
2024/01/19 10:19:24;;;;;;;;;76.00;63.00;;;;;;;;5069465;28;45562;-77
2024/01/19 10:21:50;;;;;;;;;84.50;65.00;;;;;;;;5075856;28;45445;-78
2024/01/19 10:24:19;;;;;;;;;83.00;66.25;;;;;;;;5057018;28;45454;-78
2024/01/19 10:26:50;;;;;;;;;80.25;64.50;;;;;;;;5060267;28;45304;-77
2024/01/19 10:29:16;;;;;;;;;84.00;65.75;;;;;;;;5060984;28;45395;-79
2024/01/19 10:31:44;;;;;;;;;81.25;66.00;;;;;;;;5050240;28;47282;-79
2024/01/19 10:34:19;;;;;;;;;82.00;65.50;;;;;;;;5051937;28;45355;-78
2024/01/19 10:36:45;;;;;;;;;82.75;66.25;;;;;;;;5068240;28;46265;-78
2024/01/19 10:39:29;;;;;;;;;84.25;68.25;;;;;;;;5049745;28;47473;-78
2024/01/19 10:42:07;;;;;;;;;76.75;63.50;;;;;;;;5049651;28;48210;-77
2024/01/19 10:44:32;;;;;;;;;80.25;65.25;;;;;;;;5067965;28;45494;-76
2024/01/19 10:46:58;;;;;;;;;82.50;63.50;;;;;;;;5041518;28;45336;-80
2024/01/19 10:49:24;;;;;;;;;87.75;65.25;;;;;;;;5046402;28;46034;-77
2024/01/19 10:51:49;;;;;;;;;75.75;61.50;;;;;;;;5079819;28;45967;-77
2024/01/19 10:54:24;;;;;;;;;83.75;64.25;;;;;;;;5048090;28;45392;-77
2024/01/19 10:56:50;;;;;;;;;85.25;66.25;;;;;;;;5039994;28;45392;-78
2024/01/19 10:59:15;;;;;;;;;81.75;65.25;;;;;;;;5057957;28;45474;-76
2024/01/19 11:01:40;;;;;;;;;81.75;65.00;;;;;;;;5058002;28;45407;-77
2024/01/19 11:04:07;;;;;;;;;80.75;63.00;;;;;;;;5057786;28;45412;-77
2024/01/19 11:06:33;;;;;;;;;81.50;65.50;;;;;;;;5061740;28;45402;-77
2024/01/19 11:08:58;;;;;;;;;85.50;68.50;;;;;;;;5062625;28;45355;-77
2024/01/19 11:11:26;;;;;;;;;82.00;66.00;;;;;;;;5062265;28;45517;-77
2024/01/19 11:13:53;;;;;;;;;80.75;64.75;;;;;;;;5062783;28;45221;-77
2024/01/19 11:16:24;;;;;;;;;81.75;65.75;;;;;;;;5062614;28;45300;-77
2024/01/19 11:18:49;;;;;;;;;80.75;63.75;;;;;;;;5062582;28;45280;-77
2024/01/19 11:21:15;;;;;;;;;80.75;64.75;;;;;;;;5044365;28;47200;-77
2024/01/19 11:23:41;;;;;;;;;80.00;62.75;;;;;;;;5044054;28;45271;-77
2024/01/19 11:26:25;;;;;;;;;82.50;65.75;;;;;;;;5044760;28;45321;-76
2024/01/19 11:28:50;;;;;;;;;80.50;65.00;;;;;;;;5069961;28;45744;-78
2024/01/19 11:31:20;;;;;;;;;78.25;61.75;;;;;;;;5062384;28;46544;-77
2024/01/19 11:33:45;;;;;;;;;77.50;62.50;;;;;;;;5071486;27;45631;-76
2024/01/19 11:36:11;;;;;;;;;74.00;59.25;;;;;;;;5061118;28;45423;-80
2024/01/19 11:38:36;;;;;;;;;81.75;65.75;;;;;;;;5072943;28;45689;-78
2024/01/19 11:41:01;;;;;;;;;79.50;63.75;;;;;;;;5058528;28;45322;-79
2024/01/19 11:43:37;;;;;;;;;80.00;64.50;;;;;;;;5058338;28;46585;-77
2024/01/19 11:46:03;;;;;;;;;85.00;68.25;;;;;;;;5043832;28;45281;-76
2024/01/19 11:48:39;;;;;;;;;86.50;68.50;;;;;;;;5060544;28;45403;-78
2024/01/19 11:51:04;;;;;;;;;85.00;67.50;;;;;;;;5035988;28;46709;-80
2024/01/19 11:53:49;;;;;;;;;82.50;66.25;;;;;;;;5041325;28;45436;-79
2024/01/19 11:56:24;;;;;;;;;86.00;66.75;;;;;;;;5036131;28;45458;-82
2024/01/19 11:58:49;;;;;;;;;84.50;67.50;;;;;;;;5042773;28;46196;-83
2024/01/19 12:01:15;;;;;;;;;79.00;64.25;;;;;;;;5060945;28;45619;-80
2024/01/19 12:03:41;;;;;;;;;84.25;67.50;;;;;;;;5060576;28;45467;-82
2024/01/19 12:06:06;;;;;;;;;80.25;65.00;;;;;;;;5043032;28;45265;-81
2024/01/19 12:08:32;;;;;;;;;82.75;65.00;;;;;;;;5060813;28;45350;-81
2024/01/19 12:11:05;;;;;;;;;81.75;65.00;;;;;;;;5042527;28;47121;-81
2024/01/19 12:13:31;;;;;;;;;81.75;65.00;;;;;;;;5042804;28;45668;-81
2024/01/19 12:15:56;;;;;;;;;84.50;67.00;;;;;;;;5042451;28;45447;-82
2024/01/19 12:18:22;;;;;;;;;78.25;62.25;;;;;;;;5060463;28;45531;-82
2024/01/19 12:20:47;;;;;;;;;72.00;58.00;;;;;;;;5059797;28;45634;-79
2024/01/19 12:23:14;;;;;;;;;69.00;55.25;;;;;;;;5066439;28;45567;-84
2024/01/19 12:25:39;;;;;;;;;122.33;114.67;;;;;;;;5044448;28;45336;-79
2024/01/19 12:28:05;;;;;;;;;70.75;57.75;;;;;;;;5042810;28;46839;-79
2024/01/19 12:30:32;;;;;;;;;72.00;58.50;;;;;;;;5060637;28;45481;-78
2024/01/19 12:32:57;;;;;;;;;66.25;53.50;;;;;;;;5042661;28;45584;-79
2024/01/19 12:35:23;;;;;;;;;63.50;53.75;;;;;;;;5041840;28;45380;-80
2024/01/19 12:37:48;;;;;;;;;57.00;47.50;;;;;;;;5061014;28;45446;-78
2024/01/19 12:40:25;;;;;;;;;57.50;48.25;;;;;;;;5042476;28;47967;-79
2024/01/19 12:42:51;;;;;;;;;55.75;45.75;;;;;;;;5060537;28;45785;-79
2024/01/19 12:45:19;;;;;;;;;58.00;48.50;;;;;;;;5060036;28;45538;-78
2024/01/19 12:47:47;;;;;;;;;54.50;45.25;;;;;;;;5051102;28;46600;-78
2024/01/19 12:50:13;;;;;;;;;58.50;49.25;;;;;;;;5059313;28;45778;-78
2024/01/19 12:52:38;;;;;;;;;63.50;48.50;;;;;;;;5060673;28;45339;-78
2024/01/19 12:55:04;;;;;;;;;58.75;48.50;;;;;;;;5060375;28;45398;-79
2024/01/19 12:57:30;;;;;;;;;56.75;47.50;;;;;;;;5061008;28;45523;-79
2024/01/19 13:00:06;;;;;;;;;60.25;48.00;;;;;;;;5062100;28;45325;-79
2024/01/19 13:02:31;;;;;;;;;55.75;47.75;;;;;;;;5064193;28;45285;-81
2024/01/19 13:04:56;;;;;;;;;55.25;45.75;;;;;;;;5060302;28;45260;-78
2024/01/19 13:07:22;;;;;;;;;46.00;41.50;;;;;;;;5060607;28;45324;-80
2024/01/19 13:09:59;;;;;;;;;51.75;43.25;;;;;;;;5060358;28;46178;-79
2024/01/19 13:12:24;;;;;;;;;50.75;43.25;;;;;;;;5062196;28;45430;-75
2024/01/19 13:14:49;;;;;;;;;51.75;42.75;;;;;;;;5071526;28;45560;-75
2024/01/19 13:17:22;;;;;;;;;48.50;42.25;;;;;;;;5079740;28;45407;-75
2024/01/19 13:19:47;;;;;;;;;49.50;42.00;;;;;;;;5080069;28;45525;-76
2024/01/19 13:22:13;;;;;;;;;42.75;40.00;;;;;;;;5051450;28;45575;-75
2024/01/19 13:24:38;;;;;;;;;41.25;37.75;;;;;;;;5061955;28;45448;-75
2024/01/19 13:27:03;;;;;;;;;42.25;39.50;;;;;;;;5055887;28;45401;-75
2024/01/19 13:29:29;;;;;;;;;39.75;38.00;;;;;;;;5068211;28;46047;-75
2024/01/19 13:31:55;;;;;;;;;50.75;42.75;;;;;;;;5058821;28;45406;-75
2024/01/19 13:34:26;;;;;;;;;54.50;43.75;;;;;;;;5040827;28;45423;-76
2024/01/19 13:36:51;;;;;;;;;52.00;43.25;;;;;;;;5059337;28;46178;-75
2024/01/19 13:39:16;;;;;;;;;55.00;46.25;;;;;;;;5041411;28;48684;-75
2024/01/19 13:41:42;;;;;;;;;45.75;40.00;;;;;;;;5058973;28;45540;-75
2024/01/19 13:44:07;;;;;;;;;48.25;39.75;;;;;;;;5040493;28;45456;-76
2024/01/19 13:46:32;;;;;;;;;42.25;39.25;;;;;;;;5041178;28;46547;-76
2024/01/19 13:48:58;;;;;;;;;52.00;42.50;;;;;;;;5040872;28;47527;-77
2024/01/19 13:51:23;;;;;;;;;48.25;41.50;;;;;;;;5059832;28;45434;-78
2024/01/19 13:53:48;;;;;;;;;59.00;44.25;;;;;;;;5059816;28;45369;-76
2024/01/19 13:56:13;;;;;;;;;57.25;46.00;;;;;;;;5041309;28;47176;-76
2024/01/19 13:58:39;;;;;;;;;51.00;44.50;;;;;;;;5059314;28;46544;-76
2024/01/19 14:01:06;;;;;;;;;58.00;48.00;;;;;;;;5041255;28;45659;-76
2024/01/19 14:03:31;;;;;;;;;55.00;46.00;;;;;;;;5041014;28;45406;-77
2024/01/19 14:05:56;;;;;;;;;52.75;44.75;;;;;;;;5059517;28;45425;-76
2024/01/19 14:08:21;;;;;;;;;59.75;48.00;;;;;;;;5060760;28;46235;-76